Time;durP1;ratioP1;P1;durP2;ratioP2;P2;SDS_P1;SDS_P2;PMS_P1;PMS_P2;Temp;Humidity;BMP_temperature;BMP_pressure;BME280_temperature;BME280_humidity;BME280_pressure;Samples;Min_cycle;Max_cycle;Signal;HPM_P1;HPM_P2
2021/08/01 00:00:45;;;;;;;;;2.25;2.25;;;;;16.95;59.98;100036.34;4997842;28;45331;-90
2021/08/01 00:03:11;;;;;;;;;2.00;2.00;;;;;16.99;59.85;100048.53;4980451;28;45285;-89
2021/08/01 00:05:36;;;;;;;;;3.25;2.25;;;;;16.67;60.12;99993.16;4979996;28;45196;-91
2021/08/01 00:08:02;;;;;;;;;3.50;2.50;;;;;16.80;60.27;100037.69;4980063;28;47213;-89
2021/08/01 00:10:27;;;;;;;;;3.75;3.00;;;;;16.60;60.42;100012.66;4979956;28;45512;-90
2021/08/01 00:12:54;;;;;;;;;3.00;2.50;;;;;16.77;60.96;100038.81;4980105;28;45156;-91
2021/08/01 00:15:19;;;;;;;;;7.00;4.25;;;;;16.51;60.73;100012.47;4978943;28;45428;-88
2021/08/01 00:17:44;;;;;;;;;4.50;4.50;;;;;16.59;61.19;100027.91;4975468;28;47124;-89
2021/08/01 00:20:10;;;;;;;;;5.50;3.00;;;;;16.55;60.83;100019.28;4979618;28;45451;-89
2021/08/01 00:22:35;;;;;;;;;4.00;3.00;;;;;16.39;61.08;100006.38;4979895;28;45196;-91
2021/08/01 00:25:01;;;;;;;;;2.00;2.00;;;;;16.45;61.32;100018.41;4980151;28;45227;-90
2021/08/01 00:27:26;;;;;;;;;4.00;3.00;;;;;16.47;61.35;100029.81;4980107;28;47442;-89
2021/08/01 00:29:52;;;;;;;;;4.00;2.50;;;;;16.44;61.44;100031.94;4997019;28;45280;-89
2021/08/01 00:32:17;;;;;;;;;4.00;3.00;;;;;16.46;61.64;100038.88;4979736;28;45039;-90
2021/08/01 00:34:42;;;;;;;;;4.00;3.00;;;;;16.27;62.01;100004.75;4979524;28;45236;-91
2021/08/01 00:37:08;;;;;;;;;7.25;3.25;;;;;16.40;61.50;100031.34;4978914;28;47037;-87
2021/08/01 00:39:33;;;;;;;;;3.50;3.25;;;;;16.38;61.58;100025.28;4978070;28;45134;-86
2021/08/01 00:41:58;;;;;;;;;2.25;2.25;;;;;16.29;61.97;100013.53;4996409;28;45265;-86
2021/08/01 00:44:24;;;;;;;;;4.25;3.25;;;;;16.46;62.04;100038.88;4978631;28;45596;-86
2021/08/01 00:46:49;;;;;;;;;5.25;2.25;;;;;16.42;61.84;100029.41;4978773;28;46921;-87
2021/08/01 00:49:16;;;;;;;;;3.00;3.00;;;;;16.40;62.06;100026.00;4979150;28;45662;-87
2021/08/01 00:51:41;;;;;;;;;3.25;3.25;;;;;16.36;62.05;100021.88;4996794;28;45185;-86
2021/08/01 00:54:07;;;;;;;;;3.75;3.50;;;;;16.47;61.84;100037.03;4978692;28;45436;-87
2021/08/01 00:56:33;;;;;;;;;3.75;2.75;;;;;16.49;62.27;100032.38;4996670;28;45229;-87
2021/08/01 00:58:58;;;;;;;;;4.00;4.00;;;;;16.28;62.08;99997.59;4978726;28;45792;-87
2021/08/01 01:01:32;;;;;;;;;4.00;3.00;;;;;16.44;61.77;100032.78;4996796;28;45110;-86
2021/08/01 01:04:19;;;;;;;;;3.50;3.25;;;;;16.52;61.86;100037.50;4996725;28;45196;-87
2021/08/01 01:07:08;;;;;;;;;3.00;3.00;;;;;16.56;61.75;100041.59;4996229;28;45287;-86
2021/08/01 01:09:44;;;;;;;;;3.75;2.50;;;;;16.49;62.20;100030.56;4978819;28;46267;-87
2021/08/01 01:12:15;;;;;;;;;4.00;3.00;;;;;16.59;62.36;100046.69;4996582;28;45197;-87
2021/08/01 01:14:44;;;;;;;;;2.50;2.00;;;;;16.46;62.07;100024.59;4996516;28;45154;-87
2021/08/01 01:17:13;;;;;;;;;2.00;2.00;;;;;16.37;62.24;100023.59;4996273;28;45273;-86
2021/08/01 01:19:38;;;;;;;;;2.75;2.25;;;;;16.55;62.55;100050.63;4978550;28;45760;-88
2021/08/01 01:22:26;;;;;;;;;3.00;1.67;;;;;16.51;62.11;100054.56;4996664;28;45296;-86
2021/08/01 01:24:53;;;;;;;;;3.00;2.00;;;;;16.46;62.28;100044.25;4900224;28;45308;-86
2021/08/01 01:27:30;;;;;;;;;2.25;2.25;;;;;16.39;62.14;100030.53;4916524;28;45409;-86
2021/08/01 01:30:02;;;;;;;;;5.75;3.50;;;;;16.35;62.95;100015.69;4915894;28;46280;-86
2021/08/01 01:33:10;;;;;;;;;3.50;3.00;;;;;16.48;62.96;100036.91;4916393;28;45259;-87
2021/08/01 01:35:38;;;;;;;;;3.00;3.00;;;;;16.41;62.89;100022.34;4859552;29;45533;-86
2021/08/01 01:38:06;;;;;;;;;4.75;3.00;;;;;16.52;63.07;100034.81;4859491;29;47485;-87
2021/08/01 01:40:35;;;;;;;;;3.00;3.00;;;;;16.36;63.07;100012.00;4859435;29;45249;-88
2021/08/01 01:43:02;;;;;;;;;2.00;2.00;;;;;16.39;62.62;100017.09;4860140;29;45200;-87
2021/08/01 01:45:29;;;;;;;;;2.25;2.25;;;;;16.31;63.04;100005.34;4843509;29;45521;-87
2021/08/01 01:47:55;;;;;;;;;3.00;3.00;;;;;16.55;62.86;100047.94;4859542;29;46259;-87
2021/08/01 01:50:21;;;;;;;;;3.25;2.75;;;;;16.36;62.70;100006.66;4859539;29;45480;-87
2021/08/01 01:52:52;;;;;;;;;3.50;3.50;;;;;16.50;62.45;100020.66;4846515;29;45330;-87
2021/08/01 01:55:19;;;;;;;;;3.00;3.00;;;;;16.62;62.75;100040.22;4862486;29;45280;-87
2021/08/01 01:57:45;;;;;;;;;4.00;4.00;;;;;16.56;63.08;100022.81;4862813;29;46500;-88
2021/08/01 02:00:12;;;;;;;;;3.75;3.00;;;;;16.65;63.12;100040.78;4862279;29;45634;-87
2021/08/01 02:02:37;;;;;;;;;4.00;3.00;;;;;16.60;63.37;100028.75;4908931;28;45292;-87
2021/08/01 02:05:04;;;;;;;;;3.50;3.00;;;;;16.42;63.40;100005.25;4919236;28;45331;-87
2021/08/01 02:07:32;;;;;;;;;2.25;2.25;;;;;16.64;63.41;100041.75;4919224;28;45438;-86
2021/08/01 02:10:22;;;;;;;;;2.00;2.00;;;;;16.61;63.33;100033.13;4976473;28;45173;-87
2021/08/01 02:12:56;;;;;;;;;4.00;2.00;;;;;16.55;63.25;100030.00;4981272;28;45099;-86
2021/08/01 02:15:33;;;;;;;;;3.50;2.25;;;;;16.56;63.20;100039.75;4999083;28;45222;-88
2021/08/01 02:18:04;;;;;;;;;3.75;2.50;;;;;16.51;63.46;100039.31;4999081;28;45324;-87
2021/08/01 02:20:46;;;;;;;;;3.00;1.75;;;;;16.51;63.22;100036.63;4981220;28;45079;-87
2021/08/01 02:23:21;;;;;;;;;1.75;1.75;;;;;16.50;63.31;100036.75;4999082;28;45227;-87
2021/08/01 02:25:48;;;;;;;;;4.50;1.00;;;;;16.32;63.46;100007.91;4998961;28;45367;-88
2021/08/01 02:28:15;;;;;;;;;2.00;2.00;;;;;16.33;63.55;100003.38;4981066;28;47192;-86
2021/08/01 02:30:42;;;;;;;;;3.75;2.00;;;;;16.44;63.51;100023.91;4980558;28;45442;-87
2021/08/01 02:33:07;;;;;;;;;3.00;3.00;;;;;16.21;63.43;100003.47;4981117;28;45276;-87
2021/08/01 02:35:35;;;;;;;;;2.00;2.00;;;;;16.41;63.48;100029.53;4980904;28;45245;-87
2021/08/01 02:38:03;;;;;;;;;3.00;3.00;;;;;16.24;63.59;100004.19;4998601;28;45504;-87
2021/08/01 02:40:33;;;;;;;;;2.50;2.50;;;;;16.36;63.39;100024.56;4998713;28;45210;-86
2021/08/01 02:43:01;;;;;;;;;2.00;2.00;;;;;16.22;63.90;100007.03;4981093;28;45555;-86
2021/08/01 02:45:27;;;;;;;;;3.00;3.00;;;;;16.40;63.88;100026.00;4998455;28;45221;-87
2021/08/01 02:47:54;;;;;;;;;2.00;2.00;;;;;16.30;63.94;100019.75;4998515;28;46158;-88
2021/08/01 02:50:23;;;;;;;;;2.25;2.25;;;;;16.18;64.00;100006.44;4980538;28;46034;-88
2021/08/01 02:53:01;;;;;;;;;5.25;3.00;;;;;16.25;63.92;100014.78;4980662;28;45312;-86
2021/08/01 02:55:32;;;;;;;;;4.00;3.00;;;;;16.25;63.70;100014.78;4998229;28;45308;-87
2021/08/01 02:57:58;;;;;;;;;2.25;2.00;;;;;16.19;63.58;100008.13;4980549;28;48172;-87
2021/08/01 03:00:25;;;;;;;;;3.00;3.00;;;;;16.29;63.86;100021.59;4980678;28;45371;-86
2021/08/01 03:02:51;;;;;;;;;5.50;2.00;;;;;16.31;63.93;100032.19;4997381;28;45236;-86
2021/08/01 03:05:18;;;;;;;;;2.00;2.00;;;;;16.24;63.74;100021.13;4998137;28;45248;-87
2021/08/01 03:07:45;;;;;;;;;4.75;3.50;;;;;16.29;63.97;100029.63;4980478;28;48356;-88
2021/08/01 03:10:13;;;;;;;;;3.50;3.00;;;;;16.23;64.06;100019.44;4980349;28;45909;-86
2021/08/01 03:12:43;;;;;;;;;1.75;1.75;;;;;16.26;63.85;100026.38;4980531;28;45186;-87
2021/08/01 03:15:08;;;;;;;;;2.50;2.50;;;;;16.23;64.20;100019.44;4980127;28;45177;-87
2021/08/01 03:17:34;;;;;;;;;5.00;2.50;;;;;16.15;64.36;100008.53;4997934;28;47695;-87
2021/08/01 03:19:59;;;;;;;;;3.25;3.25;;;;;16.09;64.20;100004.56;4998065;28;45148;-87
2021/08/01 03:22:24;;;;;;;;;1.25;1.25;;;;;16.09;64.44;100003.69;4980484;28;45320;-87
2021/08/01 03:24:50;;;;;;;;;3.50;3.00;;;;;16.05;64.09;100006.66;4998136;28;45305;-88
2021/08/01 03:27:15;;;;;;;;;3.75;2.75;;;;;16.00;64.19;100003.53;4997856;28;46172;-88
2021/08/01 03:29:40;;;;;;;;;2.00;2.00;;;;;15.93;64.31;99991.63;4997702;28;45352;-86
2021/08/01 03:32:06;;;;;;;;;2.50;2.50;;;;;16.06;64.21;100023.56;4980275;28;45178;-88
2021/08/01 03:34:31;;;;;;;;;2.25;2.25;;;;;16.06;64.22;100023.56;4980177;28;45490;-87
2021/08/01 03:36:57;;;;;;;;;4.50;2.75;;;;;15.90;64.27;99997.25;4997532;28;45332;-87
2021/08/01 03:39:22;;;;;;;;;4.00;2.50;;;;;15.80;64.42;99983.78;4997927;28;45407;-87
2021/08/01 03:41:48;;;;;;;;;2.00;2.00;;;;;15.82;64.22;99999.78;4998048;28;45235;-87
2021/08/01 03:44:13;;;;;;;;;2.75;1.75;;;;;15.62;64.33;99970.13;4997706;28;45240;-87
2021/08/01 03:46:38;;;;;;;;;2.75;1.75;;;;;15.81;64.25;100004.25;4997488;28;46482;-87
2021/08/01 03:49:04;;;;;;;;;2.00;2.00;;;;;15.74;64.60;99994.19;4979803;28;45229;-87
2021/08/01 03:51:29;;;;;;;;;2.25;2.00;;;;;15.69;64.51;99995.44;4997663;28;45273;-87
2021/08/01 03:53:55;;;;;;;;;2.00;1.75;;;;;15.72;64.76;100007.72;4979607;28;45209;-87
2021/08/01 03:56:20;;;;;;;;;1.75;1.75;;;;;15.61;64.42;99986.34;4996991;28;45241;-87
2021/08/01 03:58:45;;;;;;;;;1.75;1.75;;;;;15.54;64.44;99986.03;4979664;28;45887;-87
2021/08/01 04:01:14;;;;;;;;;3.75;1.75;;;;;15.67;64.48;100010.78;4997580;28;45261;-87
2021/08/01 04:03:40;;;;;;;;;1.75;1.75;;;;;15.76;64.57;100033.28;4997464;28;45392;-86
2021/08/01 04:06:08;;;;;;;;;3.50;2.75;;;;;15.64;65.05;100013.72;4997086;28;45829;-87
2021/08/01 04:08:34;;;;;;;;;2.75;2.75;;;;;15.66;64.75;100025.19;4997321;28;45468;-88
2021/08/01 04:11:05;;;;;;;;;2.75;2.50;;;;;15.63;65.06;100022.72;4979395;28;45254;-87
2021/08/01 04:13:32;;;;;;;;;4.25;2.25;;;;;15.67;64.97;100031.38;4979762;28;45476;-88
2021/08/01 04:15:57;;;;;;;;;5.25;3.50;;;;;15.57;65.03;100003.66;4978664;28;48089;-87
2021/08/01 04:18:22;;;;;;;;;4.00;3.00;;;;;15.48;64.84;99992.75;4997291;28;45344;-87
2021/08/01 04:20:48;;;;;;;;;2.75;2.75;;;;;15.57;64.99;99999.16;4997311;28;45201;-86
2021/08/01 04:23:14;;;;;;;;;3.25;2.25;;;;;15.47;64.84;99988.34;4997253;28;45360;-87
2021/08/01 04:25:39;;;;;;;;;2.00;1.75;;;;;15.60;65.07;100014.13;4996808;28;45436;-86
2021/08/01 04:28:04;;;;;;;;;5.75;2.00;;;;;15.58;65.22;100008.06;4997057;28;45217;-86
2021/08/01 04:30:29;;;;;;;;;3.25;3.25;;;;;15.62;65.40;100014.81;4997042;28;45249;-86
2021/08/01 04:32:55;;;;;;;;;2.25;2.25;;;;;15.70;65.09;100029.28;4979200;28;45622;-87
2021/08/01 04:35:20;;;;;;;;;2.50;2.50;;;;;15.60;65.51;100014.13;4979088;28;46087;-87
2021/08/01 04:37:45;;;;;;;;;7.75;2.50;;;;;15.54;65.75;100002.94;4997068;28;45285;-87
2021/08/01 04:40:11;;;;;;;;;4.75;2.75;;;;;15.58;65.55;100011.56;4996696;28;45255;-86
2021/08/01 04:42:36;;;;;;;;;4.25;2.75;;;;;15.61;65.93;100021.19;4979056;28;45384;-87
2021/08/01 04:45:02;;;;;;;;;3.00;3.00;;;;;15.61;66.03;100032.75;4996614;28;46306;-87
2021/08/01 04:47:27;;;;;;;;;3.75;3.00;;;;;15.45;65.90;99992.13;4996808;28;45316;-87
2021/08/01 04:49:53;;;;;;;;;3.00;2.50;;;;;15.60;66.10;100016.81;4979145;28;45761;-87
2021/08/01 04:52:19;;;;;;;;;4.00;2.50;;;;;15.62;66.00;100021.06;4979119;28;45151;-87
2021/08/01 04:54:45;;;;;;;;;4.00;2.75;;;;;15.44;66.06;99990.47;4978406;28;47049;-86
2021/08/01 04:57:11;;;;;;;;;3.25;2.75;;;;;15.63;66.01;100017.38;4996877;28;45221;-87
2021/08/01 04:59:36;;;;;;;;;4.50;3.50;;;;;15.73;66.12;100030.00;4996719;28;45328;-88
2021/08/01 05:02:03;;;;;;;;;4.25;2.75;;;;;15.56;66.16;100001.97;4996685;28;45307;-87
2021/08/01 05:04:29;;;;;;;;;3.00;3.00;;;;;15.57;66.05;99992.94;4996218;28;46707;-87
2021/08/01 05:06:54;;;;;;;;;4.00;2.00;;;;;15.66;65.94;100002.88;4996389;28;45815;-86
2021/08/01 05:09:20;;;;;;;;;3.00;3.00;;;;;15.86;66.31;100033.34;4978936;28;45263;-87
2021/08/01 05:11:45;;;;;;;;;5.50;3.00;;;;;15.74;66.19;100002.22;4996595;28;45288;-87
2021/08/01 05:14:10;;;;;;;;;3.75;2.75;;;;;15.76;66.19;99990.41;4978332;28;48101;-87
2021/08/01 05:16:36;;;;;;;;;4.25;3.25;;;;;15.94;66.03;100009.41;4978174;28;45312;-87
2021/08/01 05:19:01;;;;;;;;;2.25;2.00;;;;;15.86;65.84;99991.31;4978526;28;45382;-86
2021/08/01 05:21:26;;;;;;;;;3.25;2.75;;;;;16.05;65.86;100020.06;4996585;28;45238;-86
2021/08/01 05:23:52;;;;;;;;;3.00;1.25;;;;;16.03;65.74;100015.81;4978231;28;46897;-88
2021/08/01 05:26:18;;;;;;;;;2.00;2.00;;;;;16.09;65.89;100025.16;4979235;28;45487;-86
2021/08/01 05:28:43;;;;;;;;;2.50;2.25;;;;;16.00;65.71;100016.06;4982318;28;45243;-86
2021/08/01 05:31:09;;;;;;;;;3.00;2.75;;;;;16.10;65.96;100019.66;4981791;28;45383;-86
2021/08/01 05:33:34;;;;;;;;;1.00;1.00;;;;;15.92;65.95;99983.72;4999832;28;45571;-86
2021/08/01 05:36:10;;;;;;;;;5.00;2.00;;;;;16.24;65.81;100031.88;4981963;28;45379;-86
2021/08/01 05:38:37;;;;;;;;;2.50;2.00;;;;;16.25;65.51;100024.66;5000138;28;45114;-86
2021/08/01 05:41:02;;;;;;;;;6.50;2.50;;;;;16.21;65.76;100008.84;4981792;28;45289;-86
2021/08/01 05:43:28;;;;;;;;;2.00;2.00;;;;;16.30;65.65;100020.59;4999647;28;46544;-87
2021/08/01 05:45:53;;;;;;;;;3.75;3.00;;;;;16.42;65.51;100021.34;4999051;28;45225;-87
2021/08/01 05:48:19;;;;;;;;;2.50;1.75;;;;;16.45;65.51;100018.41;4999678;28;45173;-86
2021/08/01 05:50:44;;;;;;;;;3.25;2.25;;;;;16.56;65.46;100017.47;4999257;28;45577;-88
2021/08/01 05:53:09;;;;;;;;;2.00;2.00;;;;;16.44;65.37;100000.59;4999373;28;45524;-87
2021/08/01 05:55:35;;;;;;;;;2.00;2.00;;;;;16.72;64.68;100024.97;4981325;28;46190;-88
2021/08/01 05:58:00;;;;;;;;;2.75;1.75;;;;;16.80;64.55;100037.69;4981566;28;45304;-87
2021/08/01 06:00:27;;;;;;;;;2.75;1.50;;;;;16.83;64.75;100032.06;4981553;28;45234;-86
2021/08/01 06:02:53;;;;;;;;;2.00;1.00;;;;;16.84;64.42;100026.53;4981288;28;47989;-86
2021/08/01 06:05:18;;;;;;;;;2.25;1.00;;;;;16.79;64.69;100001.09;4981509;28;45308;-86
2021/08/01 06:07:43;;;;;;;;;4.00;2.00;;;;;16.98;64.63;100024.50;4981681;28;45237;-86
2021/08/01 06:10:09;;;;;;;;;4.50;2.00;;;;;16.94;64.17;100012.31;4999097;28;45281;-86
2021/08/01 06:12:35;;;;;;;;;4.00;1.25;;;;;17.02;64.28;100016.00;4981260;28;47433;-86
2021/08/01 06:15:02;;;;;;;;;4.50;1.75;;;;;17.16;64.00;100025.50;4981231;28;45479;-86
2021/08/01 06:17:27;;;;;;;;;2.50;1.50;;;;;17.08;64.12;99999.31;4999269;28;45235;-88
2021/08/01 06:19:56;;;;;;;;;3.00;2.00;;;;;17.49;63.59;100047.56;4998995;28;45312;-87
2021/08/01 06:22:22;;;;;;;;;2.75;2.00;;;;;17.58;63.75;100049.38;4981131;28;47297;-87
2021/08/01 06:24:48;;;;;;;;;1.00;1.00;;;;;17.62;63.45;100035.69;4998781;28;45573;-87
2021/08/01 06:27:13;;;;;;;;;1.50;1.50;;;;;17.77;63.16;100042.28;4981290;28;45214;-87
2021/08/01 06:29:38;;;;;;;;;2.75;2.50;;;;;17.75;62.91;100015.53;4982553;28;45288;-88
2021/08/01 06:32:04;;;;;;;;;4.00;2.00;;;;;18.11;62.53;100048.06;4961337;28;47229;-86
2021/08/01 06:34:29;;;;;;;;;2.75;1.75;;;;;18.24;62.23;100041.50;4979372;28;45150;-87
2021/08/01 06:36:54;;;;;;;;;2.00;1.00;;;;;18.25;62.16;100024.34;4979214;28;45254;-88
2021/08/01 06:39:20;;;;;;;;;3.75;2.00;;;;;18.46;61.97;100033.03;4961467;28;45178;-87
2021/08/01 06:41:45;;;;;;;;;4.25;1.00;;;;;18.66;61.36;100051.78;4961421;28;47183;-88
2021/08/01 06:44:10;;;;;;;;;2.00;2.00;;;;;18.85;60.75;100060.75;4978477;28;45193;-87
2021/08/01 06:46:36;;;;;;;;;3.00;2.25;;;;;18.80;60.63;100032.44;4961049;28;45216;-86
2021/08/01 06:49:01;;;;;;;;;2.00;1.00;;;;;18.97;59.78;100046.97;4979148;28;45226;-86
2021/08/01 06:51:26;;;;;;;;;1.75;1.75;;;;;19.10;59.82;100054.69;4978603;28;45428;-87
2021/08/01 06:53:52;;;;;;;;;1.00;1.00;;;;;19.11;59.35;100032.13;4961082;28;45829;-88
2021/08/01 06:56:19;;;;;;;;;2.50;0.50;;;;;19.44;59.08;100063.94;4961295;28;45191;-87
2021/08/01 06:58:44;;;;;;;;;3.50;1.00;;;;;19.53;58.89;100070.25;4979068;28;45372;-88
2021/08/01 07:01:10;;;;;;;;;0.25;0.25;;;;;19.58;58.76;100058.00;4960857;28;48122;-86
2021/08/01 07:03:36;;;;;;;;;2.00;1.00;;;;;19.59;58.72;100026.47;4978886;28;45413;-88
2021/08/01 07:06:01;;;;;;;;;1.75;1.00;;;;;19.86;57.11;100052.50;4961000;28;45244;-86
2021/08/01 07:08:26;;;;;;;;;1.75;1.25;;;;;20.00;57.20;100065.41;4978715;28;45273;-85
2021/08/01 07:10:52;;;;;;;;;1.50;0.75;;;;;20.15;56.82;100075.63;4960406;28;48551;-85
2021/08/01 07:13:17;;;;;;;;;1.00;1.00;;;;;20.03;56.30;100037.28;4978266;28;45269;-86
2021/08/01 07:15:42;;;;;;;;;2.75;1.00;;;;;20.33;55.82;100067.47;4978044;28;45260;-86
2021/08/01 07:18:08;;;;;;;;;0.00;0.00;;;;;20.34;55.88;100052.97;4960717;28;45227;-85
2021/08/01 07:20:34;;;;;;;;;1.00;1.00;;;;;20.62;54.26;100083.34;4960568;28;47919;-86
2021/08/01 07:22:59;;;;;;;;;1.75;1.00;;;;;20.63;54.08;100065.25;4960718;28;45166;-85
2021/08/01 07:25:25;;;;;;;;;0.00;0.00;;;;;20.62;53.40;100052.75;4960608;28;45332;-85
2021/08/01 07:27:52;;;;;;;;;1.00;1.00;;;;;20.86;53.53;100082.63;4960495;28;45381;-85
2021/08/01 07:30:17;;;;;;;;;2.00;1.00;;;;;20.92;53.07;100088.38;4977436;28;45522;-87
2021/08/01 07:32:43;;;;;;;;;2.50;1.00;;;;;20.99;53.34;100087.56;4978159;28;45344;-86
2021/08/01 07:35:08;;;;;;;;;0.50;0.50;;;;;20.91;52.43;100065.03;4960595;28;45111;-85
2021/08/01 07:37:34;;;;;;;;;2.50;1.25;;;;;21.08;52.15;100068.63;4977975;28;45265;-85
2021/08/01 07:40:00;;;;;;;;;2.00;1.00;;;;;21.13;52.33;100055.50;4977675;28;46239;-86
2021/08/01 07:42:26;;;;;;;;;2.00;2.00;;;;;21.47;51.94;100095.94;4978241;28;45178;-86
2021/08/01 07:44:54;;;;;;;;;1.75;0.50;;;;;21.51;51.44;100096.44;4960352;28;45239;-81
2021/08/01 07:47:24;;;;;;;;;1.75;0.75;;;;;21.55;51.19;100098.69;4977473;28;45189;-82
2021/08/01 07:49:51;;;;;;;;;0.00;0.00;;;;;21.54;51.18;100094.28;4976697;28;46956;-84
2021/08/01 07:52:18;;;;;;;;;1.00;1.00;;;;;21.57;50.47;100103.09;4977544;28;45302;-82
2021/08/01 07:54:43;;;;;;;;;0.00;0.00;;;;;21.54;50.44;100105.09;4977778;28;45279;-82
2021/08/01 07:57:26;;;;;;;;;1.50;0.50;;;;;21.58;50.78;100100.22;4977635;28;45202;-82
2021/08/01 07:59:53;;;;;;;;;0.75;0.00;;;;;21.67;48.88;100107.31;4977528;28;45976;-82
2021/08/01 08:02:19;;;;;;;;;4.00;1.00;;;;;21.59;49.44;100096.50;4977632;28;45233;-81
2021/08/01 08:04:45;;;;;;;;;0.75;0.00;;;;;21.69;49.50;100104.44;4977305;28;45167;-81
2021/08/01 08:07:10;;;;;;;;;1.00;1.00;;;;;21.75;49.88;100102.91;4977141;28;45130;-82
2021/08/01 08:09:36;;;;;;;;;1.00;1.00;;;;;21.92;49.87;100112.75;4977231;28;45146;-81
2021/08/01 08:12:01;;;;;;;;;2.00;0.00;;;;;22.02;49.25;100102.56;4977189;28;45470;-82
2021/08/01 08:14:27;;;;;;;;;0.25;0.00;;;;;22.11;49.02;100111.53;4977633;28;45341;-81
2021/08/01 08:16:52;;;;;;;;;2.00;1.00;;;;;22.20;48.11;100110.50;4976955;28;45249;-82
2021/08/01 08:19:17;;;;;;;;;2.00;1.00;;;;;22.16;49.01;100102.88;4977205;28;46233;-83
2021/08/01 08:21:43;;;;;;;;;0.00;0.00;;;;;22.16;48.99;100111.88;4977657;28;45157;-83
2021/08/01 08:24:08;;;;;;;;;1.75;0.00;;;;;22.22;46.37;100119.28;4977323;28;45158;-86
2021/08/01 08:26:33;;;;;;;;;1.00;1.00;;;;;22.20;46.79;100121.34;4977993;28;45237;-86
2021/08/01 08:28:59;;;;;;;;;0.00;0.00;;;;;22.12;46.81;100121.34;4976880;28;45946;-81
2021/08/01 08:31:24;;;;;;;;;0.00;0.00;;;;;22.07;47.78;100129.13;4977113;28;45270;-83
2021/08/01 08:33:50;;;;;;;;;0.00;0.00;;;;;22.12;46.94;100124.06;4959759;28;45154;-81
2021/08/01 08:36:15;;;;;;;;;0.75;0.75;;;;;22.13;48.35;100122.19;4977390;28;45177;-82
2021/08/01 08:38:40;;;;;;;;;2.00;1.00;;;;;22.23;48.00;100112.88;4977158;28;46328;-81
2021/08/01 08:41:11;;;;;;;;;0.00;0.00;;;;;22.28;48.14;100120.47;4976892;28;45218;-80
2021/08/01 08:43:36;;;;;;;;;0.00;0.00;;;;;22.16;48.08;100122.69;4977089;28;45112;-83
2021/08/01 08:46:02;;;;;;;;;3.00;1.00;;;;;22.02;47.23;100126.09;4976976;28;45264;-81
2021/08/01 08:48:29;;;;;;;;;0.00;0.00;;;;;21.96;47.82;100130.34;4976935;28;46108;-82
2021/08/01 08:50:55;;;;;;;;;0.00;0.00;;;;;22.02;48.12;100128.81;4976697;28;45476;-82
2021/08/01 08:53:24;;;;;;;;;0.00;0.00;;;;;22.17;47.82;100121.66;4977272;28;45308;-82
2021/08/01 08:55:50;;;;;;;;;0.00;0.00;;;;;22.39;47.41;100130.16;4976794;28;45257;-82
2021/08/01 08:58:20;;;;;;;;;0.00;0.00;;;;;22.64;48.09;100130.06;4976670;28;46085;-83
2021/08/01 09:00:45;;;;;;;;;1.25;0.25;;;;;22.97;46.73;100128.06;4958149;28;45493;-83
2021/08/01 09:03:10;;;;;;;;;1.00;1.00;;;;;23.24;46.17;100112.38;4977074;28;45312;-83
2021/08/01 09:05:36;;;;;;;;;0.00;0.00;;;;;23.55;44.81;100130.50;4976807;28;45233;-83
2021/08/01 09:08:01;;;;;;;;;0.00;0.00;;;;;23.62;44.10;100123.34;4976059;28;46159;-82
2021/08/01 09:10:27;;;;;;;;;1.00;0.00;;;;;23.67;44.43;100128.22;4976267;28;45281;-81
2021/08/01 09:12:54;;;;;;;;;0.00;0.00;;;;;23.73;44.52;100125.63;4976693;28;45202;-82
2021/08/01 09:15:24;;;;;;;;;0.00;0.00;;;;;23.84;44.41;100131.66;4977011;28;45192;-82
2021/08/01 09:17:54;;;;;;;;;0.00;0.00;;;;;23.86;44.33;100127.72;4976260;28;45234;-82
2021/08/01 09:20:26;;;;;;;;;1.50;0.50;;;;;23.90;43.19;100137.22;4976850;28;45409;-81
2021/08/01 09:23:01;;;;;;;;;0.00;0.00;;;;;23.90;43.10;100139.06;4976684;28;45281;-83
2021/08/01 09:25:28;;;;;;;;;0.00;0.00;;;;;23.88;43.38;100127.56;4976865;28;45354;-83
2021/08/01 09:28:14;;;;;;;;;1.00;0.00;;;;;23.88;43.26;100128.41;4976540;28;45217;-82
2021/08/01 09:30:42;;;;;;;;;0.00;0.00;;;;;23.90;43.53;100128.22;4976318;28;45304;-82
2021/08/01 09:33:08;;;;;;;;;0.00;0.00;;;;;23.90;43.34;100131.81;4976916;28;45260;-85
2021/08/01 09:35:33;;;;;;;;;0.00;0.00;;;;;23.93;41.48;100136.88;4976552;28;45153;-83
2021/08/01 09:37:59;;;;;;;;;0.00;0.00;;;;;23.93;42.40;100136.03;4976740;28;45208;-83
2021/08/01 09:40:30;;;;;;;;;0.00;0.00;;;;;23.91;42.66;100129.91;4976612;28;45269;-84
2021/08/01 09:43:09;;;;;;;;;0.75;0.00;;;;;23.93;42.33;100130.59;4976580;28;45122;-83
2021/08/01 09:45:36;;;;;;;;;0.00;0.00;;;;;23.90;42.36;100130.94;4976488;28;45213;-84
2021/08/01 09:48:19;;;;;;;;;0.00;0.00;;;;;23.86;42.26;100126.91;4976470;28;46488;-83
2021/08/01 09:50:59;;;;;;;;;0.00;0.00;;;;;23.91;42.53;100129.91;4983484;28;45209;-82
2021/08/01 09:53:25;;;;;;;;;0.00;0.00;;;;;24.11;42.38;100127.53;4995849;28;45233;-82
2021/08/01 09:56:09;;;;;;;;;0.00;0.00;;;;;24.40;42.36;100128.59;4995963;28;45157;-84
2021/08/01 09:58:38;;;;;;;;;0.00;0.00;;;;;24.68;42.07;100119.84;4996154;28;46531;-87
2021/08/01 10:01:04;;;;;;;;;0.75;0.00;;;;;24.84;41.15;100114.22;4996246;28;45307;-85
2021/08/01 10:03:44;;;;;;;;;1.00;0.00;;;;;25.00;40.82;100110.44;4995703;28;45292;-82
2021/08/01 10:06:18;;;;;;;;;0.00;0.00;;;;;25.10;39.33;100105.53;4995590;28;45357;-85
2021/08/01 10:08:54;;;;;;;;;0.00;0.00;;;;;25.15;40.18;100111.28;4977524;28;47412;-83
2021/08/01 10:11:24;;;;;;;;;0.00;0.00;;;;;25.11;40.45;100106.38;4995440;28;45328;-82
2021/08/01 10:13:51;;;;;;;;;1.00;0.00;;;;;25.07;40.67;100107.78;4998422;28;45296;-84
2021/08/01 10:16:17;;;;;;;;;0.00;0.00;;;;;25.14;40.47;100103.31;4981090;28;45265;-83
2021/08/01 10:18:44;;;;;;;;;0.75;0.00;;;;;25.12;39.91;100108.91;4999315;28;45248;-82
2021/08/01 10:21:12;;;;;;;;;0.00;0.00;;;;;25.10;39.63;100108.25;4998210;28;45282;-84
2021/08/01 10:23:44;;;;;;;;;0.00;0.00;;;;;25.07;41.69;100108.66;4998360;28;45229;-79
2021/08/01 10:26:10;;;;;;;;;1.00;0.00;;;;;24.97;43.38;100110.84;4998092;28;45373;-79
2021/08/01 10:28:50;;;;;;;;;0.25;0.00;;;;;24.98;43.15;100096.19;4998226;28;46328;-79
2021/08/01 10:31:20;;;;;;;;;0.00;0.00;;;;;25.12;42.57;100098.03;4997871;28;45576;-79
2021/08/01 10:34:17;;;;;;;;;0.25;0.00;;;;;25.30;43.13;100096.78;4998109;28;45220;-79
2021/08/01 10:36:53;;;;;;;;;0.00;0.00;;;;;25.42;42.27;100094.41;4988843;28;45238;-79
2021/08/01 10:39:21;;;;;;;;;0.00;0.00;;;;;25.49;41.79;100090.72;4998174;28;45476;-79
2021/08/01 10:41:48;;;;;;;;;0.00;0.00;;;;;25.64;42.13;100095.28;4998121;28;45501;-79
2021/08/01 10:44:14;;;;;;;;;0.00;0.00;;;;;25.81;41.71;100091.22;4997505;28;45339;-78
2021/08/01 10:46:41;;;;;;;;;0.00;0.00;;;;;25.98;39.55;100082.75;4997482;28;45216;-79
2021/08/01 10:49:09;;;;;;;;;1.25;0.00;;;;;26.10;40.57;100092.13;4997831;28;45462;-79
2021/08/01 10:51:36;;;;;;;;;0.00;0.00;;;;;26.13;40.66;100096.34;4998107;28;45476;-80
2021/08/01 10:54:19;;;;;;;;;0.50;0.00;;;;;26.09;40.57;100087.69;4997837;28;45282;-78
2021/08/01 10:56:45;;;;;;;;;0.00;0.00;;;;;26.03;40.33;100085.78;4998182;28;45235;-78
2021/08/01 10:59:45;;;;;;;;;0.00;0.00;;;;;26.13;40.63;100089.00;4997435;28;45351;-78
2021/08/01 11:02:17;;;;;;;;;0.00;0.00;;;;;26.31;40.13;100088.50;4998536;28;45204;-89
2021/08/01 11:04:45;;;;;;;;;0.75;0.75;;;;;26.35;40.41;100080.75;4982264;28;45382;-89
2021/08/01 11:07:11;;;;;;;;;2.00;0.00;;;;;26.38;39.97;100074.06;4981300;28;45221;-88
2021/08/01 11:09:36;;;;;;;;;0.00;0.00;;;;;26.30;40.44;100094.97;4998753;28;45362;-88
2021/08/01 11:12:17;;;;;;;;;1.00;0.00;;;;;26.15;39.78;100092.38;4999677;28;45241;-89
2021/08/01 11:14:50;;;;;;;;;0.00;0.00;;;;;25.94;39.49;100090.50;5012970;28;45247;-88
2021/08/01 11:17:20;;;;;;;;;2.00;0.25;;;;;25.77;39.93;100084.50;5012437;28;45284;-89
2021/08/01 11:19:46;;;;;;;;;0.25;0.25;;;;;25.63;41.49;100069.09;5009361;28;47962;-90
2021/08/01 11:22:39;;;;;;;;;0.25;0.25;;;;;25.64;39.80;100077.06;4998173;28;45378;-90
2021/08/01 11:25:28;;;;;;;;;0.00;0.00;;;;;25.49;41.24;100076.28;4997657;28;45236;-90
2021/08/01 11:28:51;;;;;;;;;0.00;0.00;;;;;25.34;41.52;100076.34;4999470;28;45271;-89
2021/08/01 11:30:57;;;;;;;;;0.25;0.00;;;;;25.29;41.10;100070.59;4990047;28;46415;-90